sensor_id;sensor_type;location;lat;lon;timestamp;P1;durP1;ratioP1;P2;durP2;ratioP2
75417;SDS011;63997;52.112;5.420;2023-11-21T00:02:17;17.63;;;1.85;;
75417;SDS011;63997;52.112;5.420;2023-11-21T00:04:43;29.25;;;3.92;;
75417;SDS011;63997;52.112;5.420;2023-11-21T00:07:10;45.78;;;4.43;;
75417;SDS011;63997;52.112;5.420;2023-11-21T00:09:36;17.10;;;2.73;;
75417;SDS011;63997;52.112;5.420;2023-11-21T00:12:03;16.88;;;2.10;;
75417;SDS011;63997;52.112;5.420;2023-11-21T00:14:29;59.55;;;4.93;;
75417;SDS011;63997;52.112;5.420;2023-11-21T00:16:56;52.05;;;4.55;;
75417;SDS011;63997;52.112;5.420;2023-11-21T00:19:22;35.05;;;3.85;;
75417;SDS011;63997;52.112;5.420;2023-11-21T00:21:49;12.63;;;2.03;;
75417;SDS011;63997;52.112;5.420;2023-11-21T00:24:16;28.05;;;3.08;;
75417;SDS011;63997;52.112;5.420;2023-11-21T00:26:43;18.20;;;2.30;;
75417;SDS011;63997;52.112;5.420;2023-11-21T00:29:10;7.20;;;2.50;;
75417;SDS011;63997;52.112;5.420;2023-11-21T00:31:37;10.75;;;2.55;;
75417;SDS011;63997;52.112;5.420;2023-11-21T00:34:04;30.73;;;2.93;;
75417;SDS011;63997;52.112;5.420;2023-11-21T00:36:31;23.27;;;2.53;;
75417;SDS011;63997;52.112;5.420;2023-11-21T00:38:58;8.18;;;2.75;;
75417;SDS011;63997;52.112;5.420;2023-11-21T00:41:25;45.88;;;4.28;;
75417;SDS011;63997;52.112;5.420;2023-11-21T00:43:54;84.93;;;5.05;;
75417;SDS011;63997;52.112;5.420;2023-11-21T00:46:21;42.47;;;4.33;;
75417;SDS011;63997;52.112;5.420;2023-11-21T00:48:48;32.25;;;3.85;;
75417;SDS011;63997;52.112;5.420;2023-11-21T00:51:14;40.00;;;3.40;;
75417;SDS011;63997;52.112;5.420;2023-11-21T00:53:40;55.95;;;4.10;;
75417;SDS011;63997;52.112;5.420;2023-11-21T00:56:07;71.53;;;4.15;;
75417;SDS011;63997;52.112;5.420;2023-11-21T00:58:35;33.43;;;2.90;;
75417;SDS011;63997;52.112;5.420;2023-11-21T01:01:01;31.52;;;2.97;;
75417;SDS011;63997;52.112;5.420;2023-11-21T01:03:29;19.58;;;2.40;;
75417;SDS011;63997;52.112;5.420;2023-11-21T01:05:56;20.45;;;2.65;;
75417;SDS011;63997;52.112;5.420;2023-11-21T01:08:22;9.32;;;2.70;;
75417;SDS011;63997;52.112;5.420;2023-11-21T01:10:50;9.93;;;2.10;;
75417;SDS011;63997;52.112;5.420;2023-11-21T01:13:16;20.52;;;2.63;;
75417;SDS011;63997;52.112;5.420;2023-11-21T01:15:43;3.25;;;1.77;;
75417;SDS011;63997;52.112;5.420;2023-11-21T01:18:09;3.00;;;1.98;;
75417;SDS011;63997;52.112;5.420;2023-11-21T01:20:36;4.82;;;2.38;;
75417;SDS011;63997;52.112;5.420;2023-11-21T01:23:02;5.67;;;2.57;;
75417;SDS011;63997;52.112;5.420;2023-11-21T01:25:29;5.60;;;2.25;;
75417;SDS011;63997;52.112;5.420;2023-11-21T01:27:55;3.90;;;2.47;;
75417;SDS011;63997;52.112;5.420;2023-11-21T01:30:22;4.45;;;2.72;;
75417;SDS011;63997;52.112;5.420;2023-11-21T01:32:48;6.70;;;2.42;;
75417;SDS011;63997;52.112;5.420;2023-11-21T01:35:15;3.57;;;2.00;;
75417;SDS011;63997;52.112;5.420;2023-11-21T01:37:41;3.13;;;2.05;;
75417;SDS011;63997;52.112;5.420;2023-11-21T01:40:08;4.53;;;1.95;;
75417;SDS011;63997;52.112;5.420;2023-11-21T01:42:40;6.53;;;2.80;;
75417;SDS011;63997;52.112;5.420;2023-11-21T01:45:10;8.05;;;3.20;;
75417;SDS011;63997;52.112;5.420;2023-11-21T01:47:38;7.17;;;2.80;;
75417;SDS011;63997;52.112;5.420;2023-11-21T01:50:08;7.90;;;2.80;;
75417;SDS011;63997;52.112;5.420;2023-11-21T01:52:38;3.38;;;2.42;;
75417;SDS011;63997;52.112;5.420;2023-11-21T01:55:06;4.03;;;2.65;;
75417;SDS011;63997;52.112;5.420;2023-11-21T01:57:35;3.63;;;2.78;;
75417;SDS011;63997;52.112;5.420;2023-11-21T02:00:03;6.27;;;2.67;;
75417;SDS011;63997;52.112;5.420;2023-11-21T02:02:45;3.67;;;2.63;;
75417;SDS011;63997;52.112;5.420;2023-11-21T02:05:16;4.68;;;2.28;;
75417;SDS011;63997;52.112;5.420;2023-11-21T02:07:45;3.15;;;2.30;;
75417;SDS011;63997;52.112;5.420;2023-11-21T02:10:14;4.75;;;2.55;;
75417;SDS011;63997;52.112;5.420;2023-11-21T02:12:42;5.03;;;2.77;;
75417;SDS011;63997;52.112;5.420;2023-11-21T02:15:10;6.40;;;2.63;;
75417;SDS011;63997;52.112;5.420;2023-11-21T02:17:41;6.80;;;3.70;;
75417;SDS011;63997;52.112;5.420;2023-11-21T02:20:13;7.20;;;3.60;;
75417;SDS011;63997;52.112;5.420;2023-11-21T02:22:48;5.78;;;3.92;;
75417;SDS011;63997;52.112;5.420;2023-11-21T02:25:18;7.17;;;3.80;;
75417;SDS011;63997;52.112;5.420;2023-11-21T02:27:44;5.97;;;3.65;;
75417;SDS011;63997;52.112;5.420;2023-11-21T02:30:14;9.10;;;3.58;;
75417;SDS011;63997;52.112;5.420;2023-11-21T02:32:42;7.43;;;4.15;;
75417;SDS011;63997;52.112;5.420;2023-11-21T02:35:14;6.65;;;4.00;;
75417;SDS011;63997;52.112;5.420;2023-11-21T02:37:42;6.50;;;3.50;;
75417;SDS011;63997;52.112;5.420;2023-11-21T02:40:09;6.47;;;3.67;;
75417;SDS011;63997;52.112;5.420;2023-11-21T02:42:41;7.13;;;3.13;;
75417;SDS011;63997;52.112;5.420;2023-11-21T02:45:07;4.70;;;3.15;;
75417;SDS011;63997;52.112;5.420;2023-11-21T02:47:34;8.40;;;3.53;;
75417;SDS011;63997;52.112;5.420;2023-11-21T02:50:01;7.97;;;4.37;;
75417;SDS011;63997;52.112;5.420;2023-11-21T02:52:27;5.55;;;3.83;;
75417;SDS011;63997;52.112;5.420;2023-11-21T02:54:54;6.15;;;4.10;;
75417;SDS011;63997;52.112;5.420;2023-11-21T02:57:20;4.93;;;3.03;;
75417;SDS011;63997;52.112;5.420;2023-11-21T02:59:47;9.48;;;4.18;;
75417;SDS011;63997;52.112;5.420;2023-11-21T03:02:13;8.50;;;3.83;;
75417;SDS011;63997;52.112;5.420;2023-11-21T03:04:40;6.47;;;3.80;;
75417;SDS011;63997;52.112;5.420;2023-11-21T03:07:06;6.78;;;3.78;;
75417;SDS011;63997;52.112;5.420;2023-11-21T03:09:32;8.30;;;4.30;;
75417;SDS011;63997;52.112;5.420;2023-11-21T03:11:59;10.20;;;4.10;;
75417;SDS011;63997;52.112;5.420;2023-11-21T03:14:25;6.53;;;4.00;;
75417;SDS011;63997;52.112;5.420;2023-11-21T03:16:52;9.52;;;4.80;;
75417;SDS011;63997;52.112;5.420;2023-11-21T03:19:18;9.52;;;3.97;;
75417;SDS011;63997;52.112;5.420;2023-11-21T03:21:45;10.57;;;4.97;;
75417;SDS011;63997;52.112;5.420;2023-11-21T03:24:11;9.25;;;4.78;;
75417;SDS011;63997;52.112;5.420;2023-11-21T03:26:38;7.77;;;4.50;;
75417;SDS011;63997;52.112;5.420;2023-11-21T03:29:04;7.65;;;4.15;;
75417;SDS011;63997;52.112;5.420;2023-11-21T03:31:30;12.85;;;5.20;;
75417;SDS011;63997;52.112;5.420;2023-11-21T03:33:57;7.88;;;4.22;;
75417;SDS011;63997;52.112;5.420;2023-11-21T03:36:24;8.63;;;4.57;;
75417;SDS011;63997;52.112;5.420;2023-11-21T03:38:51;11.20;;;4.33;;
75417;SDS011;63997;52.112;5.420;2023-11-21T03:41:18;7.43;;;4.20;;
75417;SDS011;63997;52.112;5.420;2023-11-21T03:43:44;9.77;;;4.82;;
75417;SDS011;63997;52.112;5.420;2023-11-21T03:46:11;7.57;;;4.78;;
75417;SDS011;63997;52.112;5.420;2023-11-21T03:48:38;7.15;;;4.90;;
75417;SDS011;63997;52.112;5.420;2023-11-21T03:51:05;8.43;;;5.27;;
75417;SDS011;63997;52.112;5.420;2023-11-21T03:53:31;11.00;;;4.93;;
75417;SDS011;63997;52.112;5.420;2023-11-21T03:55:58;9.73;;;5.07;;
75417;SDS011;63997;52.112;5.420;2023-11-21T03:58:24;11.70;;;5.28;;
75417;SDS011;63997;52.112;5.420;2023-11-21T04:00:51;10.98;;;5.18;;
75417;SDS011;63997;52.112;5.420;2023-11-21T04:03:17;11.10;;;4.77;;
75417;SDS011;63997;52.112;5.420;2023-11-21T04:05:44;12.20;;;5.85;;
75417;SDS011;63997;52.112;5.420;2023-11-21T04:08:12;12.50;;;5.10;;
75417;SDS011;63997;52.112;5.420;2023-11-21T04:10:38;9.55;;;5.13;;
75417;SDS011;63997;52.112;5.420;2023-11-21T04:13:05;13.57;;;5.03;;
75417;SDS011;63997;52.112;5.420;2023-11-21T04:15:32;11.27;;;4.80;;
75417;SDS011;63997;52.112;5.420;2023-11-21T04:17:59;9.80;;;4.88;;
75417;SDS011;63997;52.112;5.420;2023-11-21T04:20:25;9.25;;;4.88;;
75417;SDS011;63997;52.112;5.420;2023-11-21T04:22:52;9.50;;;4.95;;
75417;SDS011;63997;52.112;5.420;2023-11-21T04:25:18;9.52;;;4.88;;
75417;SDS011;63997;52.112;5.420;2023-11-21T04:27:45;8.53;;;4.97;;
75417;SDS011;63997;52.112;5.420;2023-11-21T04:30:12;10.77;;;5.88;;
75417;SDS011;63997;52.112;5.420;2023-11-21T04:32:39;8.88;;;5.18;;
75417;SDS011;63997;52.112;5.420;2023-11-21T04:35:08;14.35;;;5.90;;
75417;SDS011;63997;52.112;5.420;2023-11-21T04:37:35;12.15;;;6.13;;
75417;SDS011;63997;52.112;5.420;2023-11-21T04:40:02;10.97;;;5.10;;
75417;SDS011;63997;52.112;5.420;2023-11-21T04:42:35;10.52;;;6.45;;
75417;SDS011;63997;52.112;5.420;2023-11-21T04:45:03;11.35;;;5.80;;
75417;SDS011;63997;52.112;5.420;2023-11-21T04:47:35;12.48;;;5.95;;
75417;SDS011;63997;52.112;5.420;2023-11-21T04:50:02;9.43;;;5.90;;
75417;SDS011;63997;52.112;5.420;2023-11-21T04:52:30;11.83;;;5.47;;
75417;SDS011;63997;52.112;5.420;2023-11-21T04:54:56;14.50;;;6.18;;
75417;SDS011;63997;52.112;5.420;2023-11-21T04:57:24;16.05;;;5.78;;
75417;SDS011;63997;52.112;5.420;2023-11-21T04:59:51;13.32;;;6.05;;
75417;SDS011;63997;52.112;5.420;2023-11-21T05:02:17;10.27;;;5.72;;
75417;SDS011;63997;52.112;5.420;2023-11-21T05:05:00;9.93;;;5.20;;
75417;SDS011;63997;52.112;5.420;2023-11-21T05:07:28;17.33;;;6.07;;
75417;SDS011;63997;52.112;5.420;2023-11-21T05:09:57;16.92;;;6.05;;
75417;SDS011;63997;52.112;5.420;2023-11-21T05:12:24;13.95;;;5.80;;
75417;SDS011;63997;52.112;5.420;2023-11-21T05:14:51;13.43;;;6.53;;
75417;SDS011;63997;52.112;5.420;2023-11-21T05:17:17;18.47;;;6.83;;
75417;SDS011;63997;52.112;5.420;2023-11-21T05:19:44;20.27;;;5.93;;
75417;SDS011;63997;52.112;5.420;2023-11-21T05:22:15;12.50;;;5.70;;
75417;SDS011;63997;52.112;5.420;2023-11-21T05:24:41;15.70;;;5.63;;
75417;SDS011;63997;52.112;5.420;2023-11-21T05:27:08;9.77;;;5.57;;
75417;SDS011;63997;52.112;5.420;2023-11-21T05:29:35;19.73;;;6.60;;
75417;SDS011;63997;52.112;5.420;2023-11-21T05:32:03;13.25;;;5.95;;
75417;SDS011;63997;52.112;5.420;2023-11-21T05:34:30;11.13;;;6.10;;
75417;SDS011;63997;52.112;5.420;2023-11-21T05:36:57;11.35;;;6.47;;
75417;SDS011;63997;52.112;5.420;2023-11-21T05:39:24;9.32;;;5.90;;
75417;SDS011;63997;52.112;5.420;2023-11-21T05:41:51;15.87;;;6.20;;
75417;SDS011;63997;52.112;5.420;2023-11-21T05:44:17;15.68;;;6.00;;
75417;SDS011;63997;52.112;5.420;2023-11-21T05:46:44;11.93;;;6.00;;
75417;SDS011;63997;52.112;5.420;2023-11-21T05:49:11;9.00;;;5.45;;
75417;SDS011;63997;52.112;5.420;2023-11-21T05:51:37;10.77;;;6.15;;
75417;SDS011;63997;52.112;5.420;2023-11-21T05:54:04;12.93;;;5.60;;
75417;SDS011;63997;52.112;5.420;2023-11-21T05:56:31;13.05;;;5.22;;
75417;SDS011;63997;52.112;5.420;2023-11-21T05:58:57;12.75;;;5.22;;
75417;SDS011;63997;52.112;5.420;2023-11-21T06:01:25;13.05;;;5.78;;
75417;SDS011;63997;52.112;5.420;2023-11-21T06:03:54;11.85;;;5.35;;
75417;SDS011;63997;52.112;5.420;2023-11-21T06:06:25;10.30;;;5.33;;
75417;SDS011;63997;52.112;5.420;2023-11-21T06:08:52;10.63;;;5.75;;
75417;SDS011;63997;52.112;5.420;2023-11-21T06:11:18;10.38;;;5.15;;
75417;SDS011;63997;52.112;5.420;2023-11-21T06:13:45;11.85;;;5.57;;
75417;SDS011;63997;52.112;5.420;2023-11-21T06:16:11;13.52;;;6.10;;
75417;SDS011;63997;52.112;5.420;2023-11-21T06:18:42;14.97;;;5.07;;
75417;SDS011;63997;52.112;5.420;2023-11-21T06:21:10;15.13;;;6.63;;
75417;SDS011;63997;52.112;5.420;2023-11-21T06:23:36;13.90;;;6.22;;
75417;SDS011;63997;52.112;5.420;2023-11-21T06:26:03;13.05;;;6.03;;
75417;SDS011;63997;52.112;5.420;2023-11-21T06:28:31;12.10;;;5.75;;
75417;SDS011;63997;52.112;5.420;2023-11-21T06:30:57;17.20;;;6.23;;
75417;SDS011;63997;52.112;5.420;2023-11-21T06:33:24;14.38;;;6.25;;
75417;SDS011;63997;52.112;5.420;2023-11-21T06:35:53;11.82;;;6.43;;
75417;SDS011;63997;52.112;5.420;2023-11-21T06:38:21;13.77;;;6.60;;
75417;SDS011;63997;52.112;5.420;2023-11-21T06:40:47;14.30;;;6.10;;
75417;SDS011;63997;52.112;5.420;2023-11-21T06:43:14;12.90;;;5.77;;
75417;SDS011;63997;52.112;5.420;2023-11-21T06:45:41;11.45;;;5.35;;
75417;SDS011;63997;52.112;5.420;2023-11-21T06:48:07;13.18;;;5.57;;
75417;SDS011;63997;52.112;5.420;2023-11-21T06:50:34;13.00;;;5.82;;
75417;SDS011;63997;52.112;5.420;2023-11-21T06:53:01;11.32;;;5.13;;
75417;SDS011;63997;52.112;5.420;2023-11-21T06:55:30;8.93;;;5.90;;
75417;SDS011;63997;52.112;5.420;2023-11-21T06:57:57;12.90;;;5.82;;
75417;SDS011;63997;52.112;5.420;2023-11-21T07:00:24;13.25;;;5.60;;
75417;SDS011;63997;52.112;5.420;2023-11-21T07:02:50;12.98;;;5.68;;
75417;SDS011;63997;52.112;5.420;2023-11-21T07:05:17;9.43;;;4.72;;
75417;SDS011;63997;52.112;5.420;2023-11-21T07:07:47;8.60;;;5.20;;
75417;SDS011;63997;52.112;5.420;2023-11-21T07:10:14;10.38;;;6.00;;
75417;SDS011;63997;52.112;5.420;2023-11-21T07:12:41;12.18;;;5.55;;
75417;SDS011;63997;52.112;5.420;2023-11-21T07:15:07;8.40;;;5.20;;
75417;SDS011;63997;52.112;5.420;2023-11-21T07:17:37;8.00;;;5.47;;
75417;SDS011;63997;52.112;5.420;2023-11-21T07:20:07;17.17;;;6.27;;
75417;SDS011;63997;52.112;5.420;2023-11-21T07:22:34;9.52;;;5.22;;
75417;SDS011;63997;52.112;5.420;2023-11-21T07:25:01;11.63;;;5.47;;
75417;SDS011;63997;52.112;5.420;2023-11-21T07:27:28;9.63;;;5.53;;
75417;SDS011;63997;52.112;5.420;2023-11-21T07:29:54;9.63;;;4.63;;
75417;SDS011;63997;52.112;5.420;2023-11-21T07:32:21;10.60;;;5.17;;
75417;SDS011;63997;52.112;5.420;2023-11-21T07:34:47;11.95;;;6.13;;
75417;SDS011;63997;52.112;5.420;2023-11-21T07:37:14;10.85;;;4.65;;
75417;SDS011;63997;52.112;5.420;2023-11-21T07:39:40;18.90;;;7.97;;
75417;SDS011;63997;52.112;5.420;2023-11-21T07:42:08;12.93;;;5.43;;
75417;SDS011;63997;52.112;5.420;2023-11-21T07:44:35;15.97;;;5.70;;
75417;SDS011;63997;52.112;5.420;2023-11-21T07:47:01;8.50;;;4.53;;
75417;SDS011;63997;52.112;5.420;2023-11-21T07:49:28;9.20;;;4.55;;
75417;SDS011;63997;52.112;5.420;2023-11-21T07:51:54;9.60;;;4.72;;
75417;SDS011;63997;52.112;5.420;2023-11-21T07:54:21;8.40;;;4.45;;
75417;SDS011;63997;52.112;5.420;2023-11-21T07:56:47;12.37;;;4.47;;
75417;SDS011;63997;52.112;5.420;2023-11-21T07:59:14;9.88;;;5.03;;
75417;SDS011;63997;52.112;5.420;2023-11-21T08:01:40;7.57;;;4.10;;
75417;SDS011;63997;52.112;5.420;2023-11-21T08:04:09;8.98;;;4.53;;
75417;SDS011;63997;52.112;5.420;2023-11-21T08:06:35;11.25;;;4.70;;
75417;SDS011;63997;52.112;5.420;2023-11-21T08:09:02;11.47;;;4.40;;
75417;SDS011;63997;52.112;5.420;2023-11-21T08:11:29;15.00;;;5.13;;
75417;SDS011;63997;52.112;5.420;2023-11-21T08:13:57;15.43;;;4.88;;
75417;SDS011;63997;52.112;5.420;2023-11-21T08:16:25;7.68;;;4.32;;
75417;SDS011;63997;52.112;5.420;2023-11-21T08:18:51;9.60;;;4.30;;
75417;SDS011;63997;52.112;5.420;2023-11-21T08:21:18;9.97;;;3.60;;
75417;SDS011;63997;52.112;5.420;2023-11-21T08:23:45;9.82;;;3.70;;
75417;SDS011;63997;52.112;5.420;2023-11-21T08:26:15;9.13;;;3.95;;
75417;SDS011;63997;52.112;5.420;2023-11-21T08:28:42;7.65;;;3.95;;
75417;SDS011;63997;52.112;5.420;2023-11-21T08:31:08;9.63;;;4.30;;
75417;SDS011;63997;52.112;5.420;2023-11-21T08:33:37;4.87;;;2.83;;
75417;SDS011;63997;52.112;5.420;2023-11-21T08:36:10;6.90;;;3.85;;
75417;SDS011;63997;52.112;5.420;2023-11-21T08:38:39;7.95;;;3.38;;
75417;SDS011;63997;52.112;5.420;2023-11-21T08:41:07;7.07;;;3.30;;
75417;SDS011;63997;52.112;5.420;2023-11-21T08:43:35;11.23;;;3.75;;
75417;SDS011;63997;52.112;5.420;2023-11-21T08:46:06;7.13;;;3.33;;
75417;SDS011;63997;52.112;5.420;2023-11-21T08:48:35;11.18;;;4.00;;
75417;SDS011;63997;52.112;5.420;2023-11-21T08:51:03;6.90;;;3.17;;
75417;SDS011;63997;52.112;5.420;2023-11-21T08:53:30;7.53;;;3.25;;
75417;SDS011;63997;52.112;5.420;2023-11-21T08:55:57;7.07;;;3.33;;
75417;SDS011;63997;52.112;5.420;2023-11-21T08:58:23;8.60;;;3.90;;
75417;SDS011;63997;52.112;5.420;2023-11-21T09:00:50;5.35;;;3.30;;
75417;SDS011;63997;52.112;5.420;2023-11-21T09:03:16;7.68;;;4.47;;
75417;SDS011;63997;52.112;5.420;2023-11-21T09:05:43;8.90;;;4.53;;
75417;SDS011;63997;52.112;5.420;2023-11-21T09:08:10;11.40;;;4.57;;
75417;SDS011;63997;52.112;5.420;2023-11-21T09:10:37;8.77;;;4.40;;
75417;SDS011;63997;52.112;5.420;2023-11-21T09:13:05;8.77;;;4.35;;
75417;SDS011;63997;52.112;5.420;2023-11-21T09:15:35;9.20;;;4.88;;
75417;SDS011;63997;52.112;5.420;2023-11-21T09:18:01;8.90;;;5.22;;
75417;SDS011;63997;52.112;5.420;2023-11-21T09:20:28;9.82;;;6.03;;
75417;SDS011;63997;52.112;5.420;2023-11-21T09:22:55;10.80;;;6.43;;
75417;SDS011;63997;52.112;5.420;2023-11-21T09:25:22;12.27;;;6.18;;
75417;SDS011;63997;52.112;5.420;2023-11-21T09:27:49;13.40;;;6.50;;
75417;SDS011;63997;52.112;5.420;2023-11-21T09:30:15;12.70;;;6.10;;
75417;SDS011;63997;52.112;5.420;2023-11-21T09:32:42;18.13;;;6.18;;
75417;SDS011;63997;52.112;5.420;2023-11-21T09:35:12;10.57;;;6.33;;
75417;SDS011;63997;52.112;5.420;2023-11-21T09:37:40;14.30;;;6.20;;
75417;SDS011;63997;52.112;5.420;2023-11-21T09:40:09;14.90;;;6.97;;
75417;SDS011;63997;52.112;5.420;2023-11-21T09:42:40;12.27;;;5.72;;
75417;SDS011;63997;52.112;5.420;2023-11-21T09:45:21;10.73;;;5.88;;
75417;SDS011;63997;52.112;5.420;2023-11-21T09:47:52;14.00;;;6.53;;
75417;SDS011;63997;52.112;5.420;2023-11-21T09:50:22;11.05;;;6.50;;
75417;SDS011;63997;52.112;5.420;2023-11-21T09:55:39;16.25;;;6.93;;
75417;SDS011;63997;52.112;5.420;2023-11-21T09:58:10;11.73;;;6.95;;
75417;SDS011;63997;52.112;5.420;2023-11-21T10:00:40;15.50;;;6.80;;
75417;SDS011;63997;52.112;5.420;2023-11-21T10:03:08;11.77;;;6.22;;
75417;SDS011;63997;52.112;5.420;2023-11-21T10:05:35;14.23;;;6.05;;
75417;SDS011;63997;52.112;5.420;2023-11-21T10:08:04;12.07;;;6.35;;
75417;SDS011;63997;52.112;5.420;2023-11-21T10:10:43;16.73;;;6.82;;
75417;SDS011;63997;52.112;5.420;2023-11-21T10:13:14;12.10;;;5.87;;
75417;SDS011;63997;52.112;5.420;2023-11-21T10:15:44;11.98;;;6.32;;
75417;SDS011;63997;52.112;5.420;2023-11-21T10:18:17;12.07;;;5.57;;
75417;SDS011;63997;52.112;5.420;2023-11-21T10:20:44;13.25;;;5.63;;
75417;SDS011;63997;52.112;5.420;2023-11-21T10:23:18;10.82;;;6.20;;
75417;SDS011;63997;52.112;5.420;2023-11-21T10:25:45;12.33;;;6.40;;
75417;SDS011;63997;52.112;5.420;2023-11-21T10:28:11;10.20;;;5.13;;
75417;SDS011;63997;52.112;5.420;2023-11-21T10:30:38;9.85;;;5.93;;
75417;SDS011;63997;52.112;5.420;2023-11-21T10:33:05;10.13;;;5.38;;
75417;SDS011;63997;52.112;5.420;2023-11-21T10:38:08;7.30;;;4.30;;
75417;SDS011;63997;52.112;5.420;2023-11-21T10:40:42;6.30;;;3.85;;
75417;SDS011;63997;52.112;5.420;2023-11-21T10:43:10;10.98;;;4.57;;
75417;SDS011;63997;52.112;5.420;2023-11-21T10:45:41;9.05;;;4.57;;
75417;SDS011;63997;52.112;5.420;2023-11-21T10:48:09;9.13;;;4.80;;
75417;SDS011;63997;52.112;5.420;2023-11-21T10:50:37;7.67;;;4.47;;
75417;SDS011;63997;52.112;5.420;2023-11-21T10:53:04;9.02;;;5.35;;
75417;SDS011;63997;52.112;5.420;2023-11-21T10:55:35;10.27;;;5.53;;
75417;SDS011;63997;52.112;5.420;2023-11-21T10:58:02;7.07;;;4.55;;
75417;SDS011;63997;52.112;5.420;2023-11-21T11:00:32;9.40;;;4.65;;
75417;SDS011;63997;52.112;5.420;2023-11-21T11:03:00;7.37;;;4.33;;
75417;SDS011;63997;52.112;5.420;2023-11-21T11:05:27;8.10;;;3.90;;
75417;SDS011;63997;52.112;5.420;2023-11-21T11:07:59;6.72;;;4.15;;
75417;SDS011;63997;52.112;5.420;2023-11-21T11:10:29;6.03;;;3.50;;
75417;SDS011;63997;52.112;5.420;2023-11-21T11:12:56;9.52;;;4.75;;
75417;SDS011;63997;52.112;5.420;2023-11-21T11:15:26;9.70;;;5.07;;
75417;SDS011;63997;52.112;5.420;2023-11-21T11:17:54;9.38;;;5.15;;
75417;SDS011;63997;52.112;5.420;2023-11-21T11:20:25;10.52;;;5.03;;
75417;SDS011;63997;52.112;5.420;2023-11-21T11:26:07;9.45;;;5.03;;
75417;SDS011;63997;52.112;5.420;2023-11-21T11:31:36;11.00;;;5.75;;
75417;SDS011;63997;52.112;5.420;2023-11-21T11:34:31;9.25;;;5.47;;
75417;SDS011;63997;52.112;5.420;2023-11-21T11:37:04;10.40;;;6.10;;
75417;SDS011;63997;52.112;5.420;2023-11-21T11:39:38;9.32;;;5.10;;
75417;SDS011;63997;52.112;5.420;2023-11-21T11:42:08;7.97;;;5.00;;
75417;SDS011;63997;52.112;5.420;2023-11-21T11:47:22;8.90;;;5.28;;
75417;SDS011;63997;52.112;5.420;2023-11-21T11:50:08;10.27;;;6.13;;
75417;SDS011;63997;52.112;5.420;2023-11-21T11:55:17;11.07;;;6.13;;
75417;SDS011;63997;52.112;5.420;2023-11-21T11:57:46;11.68;;;6.47;;
75417;SDS011;63997;52.112;5.420;2023-11-21T12:00:21;11.45;;;6.05;;
75417;SDS011;63997;52.112;5.420;2023-11-21T12:03:01;11.88;;;6.30;;
75417;SDS011;63997;52.112;5.420;2023-11-21T12:05:31;11.88;;;6.13;;
75417;SDS011;63997;52.112;5.420;2023-11-21T12:08:00;9.67;;;5.90;;
75417;SDS011;63997;52.112;5.420;2023-11-21T12:10:29;11.77;;;5.85;;
75417;SDS011;63997;52.112;5.420;2023-11-21T12:12:58;11.93;;;6.07;;
75417;SDS011;63997;52.112;5.420;2023-11-21T12:15:26;13.40;;;6.60;;
75417;SDS011;63997;52.112;5.420;2023-11-21T12:17:55;15.52;;;6.72;;
75417;SDS011;63997;52.112;5.420;2023-11-21T12:20:23;12.97;;;7.00;;
75417;SDS011;63997;52.112;5.420;2023-11-21T12:22:51;14.32;;;7.35;;
75417;SDS011;63997;52.112;5.420;2023-11-21T12:25:19;14.57;;;7.00;;
75417;SDS011;63997;52.112;5.420;2023-11-21T12:27:48;13.73;;;7.47;;
75417;SDS011;63997;52.112;5.420;2023-11-21T12:30:17;14.25;;;6.40;;
75417;SDS011;63997;52.112;5.420;2023-11-21T12:32:47;12.90;;;6.50;;
75417;SDS011;63997;52.112;5.420;2023-11-21T12:35:16;11.07;;;6.18;;
75417;SDS011;63997;52.112;5.420;2023-11-21T12:37:45;11.50;;;6.43;;
75417;SDS011;63997;52.112;5.420;2023-11-21T12:40:13;12.75;;;7.18;;
75417;SDS011;63997;52.112;5.420;2023-11-21T12:42:44;13.43;;;7.43;;
75417;SDS011;63997;52.112;5.420;2023-11-21T12:47:47;11.98;;;6.90;;
75417;SDS011;63997;52.112;5.420;2023-11-21T12:50:22;15.68;;;7.32;;
75417;SDS011;63997;52.112;5.420;2023-11-21T12:52:50;13.00;;;7.13;;
75417;SDS011;63997;52.112;5.420;2023-11-21T12:55:18;17.13;;;8.30;;
75417;SDS011;63997;52.112;5.420;2023-11-21T12:57:54;15.20;;;7.97;;
75417;SDS011;63997;52.112;5.420;2023-11-21T13:00:28;12.93;;;6.68;;
75417;SDS011;63997;52.112;5.420;2023-11-21T13:02:59;14.52;;;7.10;;
75417;SDS011;63997;52.112;5.420;2023-11-21T13:05:26;17.05;;;9.25;;
75417;SDS011;63997;52.112;5.420;2023-11-21T13:07:55;15.27;;;7.63;;
75417;SDS011;63997;52.112;5.420;2023-11-21T13:10:24;14.33;;;7.53;;
75417;SDS011;63997;52.112;5.420;2023-11-21T13:12:53;13.07;;;6.47;;
75417;SDS011;63997;52.112;5.420;2023-11-21T13:15:21;10.77;;;6.57;;
75417;SDS011;63997;52.112;5.420;2023-11-21T13:17:47;11.07;;;6.28;;
75417;SDS011;63997;52.112;5.420;2023-11-21T13:20:14;10.23;;;6.28;;
75417;SDS011;63997;52.112;5.420;2023-11-21T13:22:47;12.43;;;6.37;;
75417;SDS011;63997;52.112;5.420;2023-11-21T13:25:15;9.60;;;5.25;;
75417;SDS011;63997;52.112;5.420;2023-11-21T13:27:44;11.68;;;5.43;;
75417;SDS011;63997;52.112;5.420;2023-11-21T13:30:14;7.95;;;4.57;;
75417;SDS011;63997;52.112;5.420;2023-11-21T13:32:42;9.05;;;4.32;;
75417;SDS011;63997;52.112;5.420;2023-11-21T13:35:10;6.20;;;3.60;;
75417;SDS011;63997;52.112;5.420;2023-11-21T13:37:47;4.13;;;2.47;;
75417;SDS011;63997;52.112;5.420;2023-11-21T13:40:15;4.75;;;2.88;;
75417;SDS011;63997;52.112;5.420;2023-11-21T13:42:46;5.60;;;2.63;;
75417;SDS011;63997;52.112;5.420;2023-11-21T13:45:12;4.97;;;2.28;;
75417;SDS011;63997;52.112;5.420;2023-11-21T13:47:38;5.43;;;2.40;;
75417;SDS011;63997;52.112;5.420;2023-11-21T13:50:06;3.85;;;2.47;;
75417;SDS011;63997;52.112;5.420;2023-11-21T13:52:43;3.88;;;2.20;;
75417;SDS011;63997;52.112;5.420;2023-11-21T13:55:10;6.25;;;2.67;;
75417;SDS011;63997;52.112;5.420;2023-11-21T13:57:42;6.93;;;3.55;;
75417;SDS011;63997;52.112;5.420;2023-11-21T14:00:16;9.57;;;4.30;;
75417;SDS011;63997;52.112;5.420;2023-11-21T14:03:11;9.27;;;4.63;;
75417;SDS011;63997;52.112;5.420;2023-11-21T14:05:48;9.70;;;5.20;;
75417;SDS011;63997;52.112;5.420;2023-11-21T14:08:18;11.85;;;6.05;;
75417;SDS011;63997;52.112;5.420;2023-11-21T14:10:46;15.10;;;7.18;;
75417;SDS011;63997;52.112;5.420;2023-11-21T14:13:17;17.10;;;8.00;;
75417;SDS011;63997;52.112;5.420;2023-11-21T14:15:43;13.55;;;7.68;;
75417;SDS011;63997;52.112;5.420;2023-11-21T14:18:12;15.75;;;6.93;;
75417;SDS011;63997;52.112;5.420;2023-11-21T14:20:43;16.30;;;8.43;;
75417;SDS011;63997;52.112;5.420;2023-11-21T14:23:12;14.50;;;7.53;;
75417;SDS011;63997;52.112;5.420;2023-11-21T14:25:38;16.77;;;7.63;;
75417;SDS011;63997;52.112;5.420;2023-11-21T14:28:06;14.90;;;7.28;;
75417;SDS011;63997;52.112;5.420;2023-11-21T14:30:32;16.60;;;7.53;;
75417;SDS011;63997;52.112;5.420;2023-11-21T14:33:01;15.85;;;8.50;;
75417;SDS011;63997;52.112;5.420;2023-11-21T14:35:28;15.82;;;7.65;;
75417;SDS011;63997;52.112;5.420;2023-11-21T14:37:58;14.40;;;7.40;;
75417;SDS011;63997;52.112;5.420;2023-11-21T14:40:26;13.07;;;7.72;;
75417;SDS011;63997;52.112;5.420;2023-11-21T14:42:59;16.60;;;8.15;;
75417;SDS011;63997;52.112;5.420;2023-11-21T14:45:26;16.40;;;7.82;;
75417;SDS011;63997;52.112;5.420;2023-11-21T14:47:53;18.70;;;7.38;;
75417;SDS011;63997;52.112;5.420;2023-11-21T14:50:32;15.77;;;7.40;;
75417;SDS011;63997;52.112;5.420;2023-11-21T14:53:09;14.68;;;8.27;;
75417;SDS011;63997;52.112;5.420;2023-11-21T14:55:39;15.20;;;7.60;;
75417;SDS011;63997;52.112;5.420;2023-11-21T14:58:18;18.83;;;8.90;;
75417;SDS011;63997;52.112;5.420;2023-11-21T15:00:53;17.65;;;9.50;;
75417;SDS011;63997;52.112;5.420;2023-11-21T15:03:24;20.40;;;8.63;;
75417;SDS011;63997;52.112;5.420;2023-11-21T15:06:02;17.95;;;8.82;;
75417;SDS011;63997;52.112;5.420;2023-11-21T15:08:50;17.55;;;9.23;;